sensor_id;sensor_type;location;lat;lon;timestamp;temperature;humidity
20885;DHT22;10602;48.000;9.654;2022-11-20T00:01:30;2.50;99.90
20885;DHT22;10602;48.000;9.654;2022-11-20T00:03:58;2.50;99.90
20885;DHT22;10602;48.000;9.654;2022-11-20T00:06:27;2.50;99.90
20885;DHT22;10602;48.000;9.654;2022-11-20T00:08:56;2.50;99.90
20885;DHT22;10602;48.000;9.654;2022-11-20T00:11:26;2.40;99.90
20885;DHT22;10602;48.000;9.654;2022-11-20T00:13:56;2.40;99.90
20885;DHT22;10602;48.000;9.654;2022-11-20T00:16:28;2.30;99.90
20885;DHT22;10602;48.000;9.654;2022-11-20T00:18:56;2.30;99.90
20885;DHT22;10602;48.000;9.654;2022-11-20T00:21:26;2.30;99.90
20885;DHT22;10602;48.000;9.654;2022-11-20T00:26:29;2.40;99.90
20885;DHT22;10602;48.000;9.654;2022-11-20T00:28:59;2.40;99.90
20885;DHT22;10602;48.000;9.654;2022-11-20T00:31:27;2.50;99.90
20885;DHT22;10602;48.000;9.654;2022-11-20T00:33:56;2.40;99.90
20885;DHT22;10602;48.000;9.654;2022-11-20T00:36:26;2.50;99.90
20885;DHT22;10602;48.000;9.654;2022-11-20T00:38:55;2.50;99.90
20885;DHT22;10602;48.000;9.654;2022-11-20T00:41:24;2.40;99.90
20885;DHT22;10602;48.000;9.654;2022-11-20T00:43:53;2.40;99.90
20885;DHT22;10602;48.000;9.654;2022-11-20T00:46:26;2.40;99.90
20885;DHT22;10602;48.000;9.654;2022-11-20T00:48:54;2.40;99.90
20885;DHT22;10602;48.000;9.654;2022-11-20T00:51:24;2.30;99.90
20885;DHT22;10602;48.000;9.654;2022-11-20T00:53:57;2.30;99.90
20885;DHT22;10602;48.000;9.654;2022-11-20T00:56:26;2.20;99.90
20885;DHT22;10602;48.000;9.654;2022-11-20T00:58:53;2.20;99.90
20885;DHT22;10602;48.000;9.654;2022-11-20T01:01:24;2.10;99.90
20885;DHT22;10602;48.000;9.654;2022-11-20T01:03:54;2.10;99.90
20885;DHT22;10602;48.000;9.654;2022-11-20T01:06:27;2.00;99.90
20885;DHT22;10602;48.000;9.654;2022-11-20T01:08:58;2.00;99.90
20885;DHT22;10602;48.000;9.654;2022-11-20T01:11:29;2.00;99.90
20885;DHT22;10602;48.000;9.654;2022-11-20T01:13:59;2.00;99.90
20885;DHT22;10602;48.000;9.654;2022-11-20T01:16:31;2.00;99.90
20885;DHT22;10602;48.000;9.654;2022-11-20T01:19:01;1.90;99.90
20885;DHT22;10602;48.000;9.654;2022-11-20T01:21:36;1.90;99.90
20885;DHT22;10602;48.000;9.654;2022-11-20T01:24:00;1.90;99.90
20885;DHT22;10602;48.000;9.654;2022-11-20T01:26:30;1.90;99.90
20885;DHT22;10602;48.000;9.654;2022-11-20T01:28:59;2.00;99.90
20885;DHT22;10602;48.000;9.654;2022-11-20T01:31:31;2.20;99.90
20885;DHT22;10602;48.000;9.654;2022-11-20T01:34:02;2.30;99.90
20885;DHT22;10602;48.000;9.654;2022-11-20T01:36:31;2.40;99.90
20885;DHT22;10602;48.000;9.654;2022-11-20T01:39:02;2.50;99.90
20885;DHT22;10602;48.000;9.654;2022-11-20T01:41:31;2.60;99.90
20885;DHT22;10602;48.000;9.654;2022-11-20T01:44:20;2.60;99.90
20885;DHT22;10602;48.000;9.654;2022-11-20T01:46:59;2.60;99.90
20885;DHT22;10602;48.000;9.654;2022-11-20T01:49:39;2.70;99.90
20885;DHT22;10602;48.000;9.654;2022-11-20T01:52:13;2.80;99.90
20885;DHT22;10602;48.000;9.654;2022-11-20T01:54:43;2.80;99.90
20885;DHT22;10602;48.000;9.654;2022-11-20T01:57:12;2.80;99.90
20885;DHT22;10602;48.000;9.654;2022-11-20T01:59:44;2.80;99.90
20885;DHT22;10602;48.000;9.654;2022-11-20T02:02:11;2.80;99.90
20885;DHT22;10602;48.000;9.654;2022-11-20T02:04:39;2.80;99.90
20885;DHT22;10602;48.000;9.654;2022-11-20T02:07:07;2.80;99.90
20885;DHT22;10602;48.000;9.654;2022-11-20T02:09:35;2.80;99.90
20885;DHT22;10602;48.000;9.654;2022-11-20T02:12:03;2.90;99.90
20885;DHT22;10602;48.000;9.654;2022-11-20T02:14:31;2.90;99.90
20885;DHT22;10602;48.000;9.654;2022-11-20T02:16:58;2.90;99.90
20885;DHT22;10602;48.000;9.654;2022-11-20T02:19:28;3.00;99.90
20885;DHT22;10602;48.000;9.654;2022-11-20T02:24:30;3.10;99.90
20885;DHT22;10602;48.000;9.654;2022-11-20T02:27:04;3.10;99.90
20885;DHT22;10602;48.000;9.654;2022-11-20T02:29:57;3.10;99.90
20885;DHT22;10602;48.000;9.654;2022-11-20T02:32:25;3.10;99.90
20885;DHT22;10602;48.000;9.654;2022-11-20T02:34:53;3.10;99.90
20885;DHT22;10602;48.000;9.654;2022-11-20T02:37:21;3.10;99.90
20885;DHT22;10602;48.000;9.654;2022-11-20T02:39:51;3.10;99.90
20885;DHT22;10602;48.000;9.654;2022-11-20T02:42:18;3.20;99.90
20885;DHT22;10602;48.000;9.654;2022-11-20T02:44:46;3.20;99.90
20885;DHT22;10602;48.000;9.654;2022-11-20T02:47:13;3.20;99.90
20885;DHT22;10602;48.000;9.654;2022-11-20T02:49:41;3.20;99.90
20885;DHT22;10602;48.000;9.654;2022-11-20T02:52:08;3.20;99.90
20885;DHT22;10602;48.000;9.654;2022-11-20T02:54:36;3.30;99.90
20885;DHT22;10602;48.000;9.654;2022-11-20T02:57:03;3.30;99.90
20885;DHT22;10602;48.000;9.654;2022-11-20T02:59:31;3.30;99.90
20885;DHT22;10602;48.000;9.654;2022-11-20T03:01:58;3.30;99.90
20885;DHT22;10602;48.000;9.654;2022-11-20T03:04:26;3.30;99.90
20885;DHT22;10602;48.000;9.654;2022-11-20T03:06:53;3.30;99.90
20885;DHT22;10602;48.000;9.654;2022-11-20T03:09:21;3.30;99.90
20885;DHT22;10602;48.000;9.654;2022-11-20T03:11:48;3.30;99.90
20885;DHT22;10602;48.000;9.654;2022-11-20T03:14:16;3.30;99.90
20885;DHT22;10602;48.000;9.654;2022-11-20T03:16:44;3.30;99.90
20885;DHT22;10602;48.000;9.654;2022-11-20T03:19:12;3.30;99.90
20885;DHT22;10602;48.000;9.654;2022-11-20T03:21:39;3.30;99.90
20885;DHT22;10602;48.000;9.654;2022-11-20T03:24:07;3.30;99.90
20885;DHT22;10602;48.000;9.654;2022-11-20T03:26:35;3.30;99.90
20885;DHT22;10602;48.000;9.654;2022-11-20T03:29:04;3.30;99.90
20885;DHT22;10602;48.000;9.654;2022-11-20T03:31:34;3.30;99.90
20885;DHT22;10602;48.000;9.654;2022-11-20T03:34:03;3.30;99.90
20885;DHT22;10602;48.000;9.654;2022-11-20T03:36:31;3.30;99.90
20885;DHT22;10602;48.000;9.654;2022-11-20T03:38:59;3.30;99.90
20885;DHT22;10602;48.000;9.654;2022-11-20T03:41:29;3.30;99.90
20885;DHT22;10602;48.000;9.654;2022-11-20T03:44:02;3.30;99.90
20885;DHT22;10602;48.000;9.654;2022-11-20T03:46:30;3.20;99.90
20885;DHT22;10602;48.000;9.654;2022-11-20T03:48:58;3.20;99.90
20885;DHT22;10602;48.000;9.654;2022-11-20T03:51:28;3.10;99.90
20885;DHT22;10602;48.000;9.654;2022-11-20T03:53:58;3.10;99.90
20885;DHT22;10602;48.000;9.654;2022-11-20T03:56:28;3.10;99.90
20885;DHT22;10602;48.000;9.654;2022-11-20T03:58:56;3.10;99.90
20885;DHT22;10602;48.000;9.654;2022-11-20T04:01:33;3.10;99.90
20885;DHT22;10602;48.000;9.654;2022-11-20T04:03:58;3.10;99.90
20885;DHT22;10602;48.000;9.654;2022-11-20T04:06:32;3.10;99.90
20885;DHT22;10602;48.000;9.654;2022-11-20T04:08:59;3.10;99.90
20885;DHT22;10602;48.000;9.654;2022-11-20T04:11:33;3.00;99.90
20885;DHT22;10602;48.000;9.654;2022-11-20T04:13:59;3.00;99.90
20885;DHT22;10602;48.000;9.654;2022-11-20T04:16:29;3.00;99.90
20885;DHT22;10602;48.000;9.654;2022-11-20T04:18:58;2.90;99.90
20885;DHT22;10602;48.000;9.654;2022-11-20T04:21:27;2.90;99.90
20885;DHT22;10602;48.000;9.654;2022-11-20T04:23:55;2.90;99.90
20885;DHT22;10602;48.000;9.654;2022-11-20T04:26:25;2.90;99.90
20885;DHT22;10602;48.000;9.654;2022-11-20T04:28:53;2.80;99.90
20885;DHT22;10602;48.000;9.654;2022-11-20T04:31:23;2.70;99.90
20885;DHT22;10602;48.000;9.654;2022-11-20T04:33:50;2.70;99.90
20885;DHT22;10602;48.000;9.654;2022-11-20T04:36:23;2.60;99.90
20885;DHT22;10602;48.000;9.654;2022-11-20T04:38:52;2.60;99.90
20885;DHT22;10602;48.000;9.654;2022-11-20T04:41:22;2.50;99.90
20885;DHT22;10602;48.000;9.654;2022-11-20T04:43:51;2.50;99.90
20885;DHT22;10602;48.000;9.654;2022-11-20T04:46:20;2.40;99.90
20885;DHT22;10602;48.000;9.654;2022-11-20T04:48:48;2.40;99.90
20885;DHT22;10602;48.000;9.654;2022-11-20T04:51:15;2.30;99.90
20885;DHT22;10602;48.000;9.654;2022-11-20T04:53:43;2.20;99.90
20885;DHT22;10602;48.000;9.654;2022-11-20T04:56:11;2.20;99.90
20885;DHT22;10602;48.000;9.654;2022-11-20T04:58:39;2.30;99.90
20885;DHT22;10602;48.000;9.654;2022-11-20T05:01:09;2.30;99.90
20885;DHT22;10602;48.000;9.654;2022-11-20T05:03:39;2.30;99.90
20885;DHT22;10602;48.000;9.654;2022-11-20T05:06:08;2.30;99.90
20885;DHT22;10602;48.000;9.654;2022-11-20T05:08:36;2.30;99.90
20885;DHT22;10602;48.000;9.654;2022-11-20T05:11:06;2.30;99.90
20885;DHT22;10602;48.000;9.654;2022-11-20T05:13:34;2.20;99.90
20885;DHT22;10602;48.000;9.654;2022-11-20T05:16:06;2.30;99.90
20885;DHT22;10602;48.000;9.654;2022-11-20T05:18:35;2.20;99.90
20885;DHT22;10602;48.000;9.654;2022-11-20T05:21:03;2.30;99.90
20885;DHT22;10602;48.000;9.654;2022-11-20T05:23:32;2.20;99.90
20885;DHT22;10602;48.000;9.654;2022-11-20T05:25:59;2.20;99.90
20885;DHT22;10602;48.000;9.654;2022-11-20T05:28:29;2.30;99.90
20885;DHT22;10602;48.000;9.654;2022-11-20T05:31:05;2.30;99.90
20885;DHT22;10602;48.000;9.654;2022-11-20T05:33:33;2.40;99.90
20885;DHT22;10602;48.000;9.654;2022-11-20T05:36:02;2.30;99.90
20885;DHT22;10602;48.000;9.654;2022-11-20T05:38:30;2.40;99.90
20885;DHT22;10602;48.000;9.654;2022-11-20T05:41:05;2.30;99.90
20885;DHT22;10602;48.000;9.654;2022-11-20T05:43:36;2.30;99.90
20885;DHT22;10602;48.000;9.654;2022-11-20T05:46:06;2.40;99.90
20885;DHT22;10602;48.000;9.654;2022-11-20T05:48:34;2.50;99.90
20885;DHT22;10602;48.000;9.654;2022-11-20T05:51:03;2.60;99.90
20885;DHT22;10602;48.000;9.654;2022-11-20T05:53:33;2.70;99.90
20885;DHT22;10602;48.000;9.654;2022-11-20T05:56:03;2.80;99.90
20885;DHT22;10602;48.000;9.654;2022-11-20T05:58:32;2.80;99.90
20885;DHT22;10602;48.000;9.654;2022-11-20T06:01:08;2.80;99.90
20885;DHT22;10602;48.000;9.654;2022-11-20T06:03:36;2.80;99.90
20885;DHT22;10602;48.000;9.654;2022-11-20T06:06:04;2.90;99.90
20885;DHT22;10602;48.000;9.654;2022-11-20T06:08:33;2.90;99.90
20885;DHT22;10602;48.000;9.654;2022-11-20T06:11:09;2.90;99.90
20885;DHT22;10602;48.000;9.654;2022-11-20T06:13:37;2.80;99.90
20885;DHT22;10602;48.000;9.654;2022-11-20T06:16:04;2.80;99.90
20885;DHT22;10602;48.000;9.654;2022-11-20T06:18:32;2.70;99.90
20885;DHT22;10602;48.000;9.654;2022-11-20T06:21:06;2.80;99.90
20885;DHT22;10602;48.000;9.654;2022-11-20T06:23:31;2.70;99.90
20885;DHT22;10602;48.000;9.654;2022-11-20T06:26:03;2.70;99.90
20885;DHT22;10602;48.000;9.654;2022-11-20T06:28:31;2.70;99.90
20885;DHT22;10602;48.000;9.654;2022-11-20T06:30:59;2.70;99.90
20885;DHT22;10602;48.000;9.654;2022-11-20T06:33:27;2.60;99.90
20885;DHT22;10602;48.000;9.654;2022-11-20T06:35:58;2.70;99.90
20885;DHT22;10602;48.000;9.654;2022-11-20T06:38:26;2.70;99.90
20885;DHT22;10602;48.000;9.654;2022-11-20T06:40:54;2.70;99.90
20885;DHT22;10602;48.000;9.654;2022-11-20T06:43:23;2.80;99.90
20885;DHT22;10602;48.000;9.654;2022-11-20T06:45:54;2.80;99.90
20885;DHT22;10602;48.000;9.654;2022-11-20T06:48:22;2.80;99.90
20885;DHT22;10602;48.000;9.654;2022-11-20T06:50:50;2.80;99.90
20885;DHT22;10602;48.000;9.654;2022-11-20T06:53:18;2.80;99.90
20885;DHT22;10602;48.000;9.654;2022-11-20T06:55:46;2.90;99.90
20885;DHT22;10602;48.000;9.654;2022-11-20T06:58:15;2.90;99.90
20885;DHT22;10602;48.000;9.654;2022-11-20T07:00:43;2.90;99.90
20885;DHT22;10602;48.000;9.654;2022-11-20T07:03:11;3.10;99.90
20885;DHT22;10602;48.000;9.654;2022-11-20T07:05:39;3.10;99.90
20885;DHT22;10602;48.000;9.654;2022-11-20T07:08:07;3.20;99.90
20885;DHT22;10602;48.000;9.654;2022-11-20T07:10:35;3.30;99.90
20885;DHT22;10602;48.000;9.654;2022-11-20T07:13:02;3.40;99.90
20885;DHT22;10602;48.000;9.654;2022-11-20T07:15:30;3.50;99.90
20885;DHT22;10602;48.000;9.654;2022-11-20T07:18:01;3.50;99.90
20885;DHT22;10602;48.000;9.654;2022-11-20T07:20:28;3.60;99.90
20885;DHT22;10602;48.000;9.654;2022-11-20T07:22:57;3.70;99.90
20885;DHT22;10602;48.000;9.654;2022-11-20T07:25:26;3.70;99.90
20885;DHT22;10602;48.000;9.654;2022-11-20T07:27:58;3.80;99.90
20885;DHT22;10602;48.000;9.654;2022-11-20T07:30:27;3.90;99.90
20885;DHT22;10602;48.000;9.654;2022-11-20T07:32:55;4.00;99.90
20885;DHT22;10602;48.000;9.654;2022-11-20T07:35:24;4.00;99.90
20885;DHT22;10602;48.000;9.654;2022-11-20T07:37:51;4.00;99.90
20885;DHT22;10602;48.000;9.654;2022-11-20T07:40:19;4.00;99.90
20885;DHT22;10602;48.000;9.654;2022-11-20T07:42:51;4.00;99.90
20885;DHT22;10602;48.000;9.654;2022-11-20T07:45:20;4.00;99.90
20885;DHT22;10602;48.000;9.654;2022-11-20T07:47:48;4.20;99.90
20885;DHT22;10602;48.000;9.654;2022-11-20T07:50:16;4.90;99.90
20885;DHT22;10602;48.000;9.654;2022-11-20T07:52:43;5.70;99.90
20885;DHT22;10602;48.000;9.654;2022-11-20T07:55:11;6.80;99.90
20885;DHT22;10602;48.000;9.654;2022-11-20T07:57:39;7.20;99.90
20885;DHT22;10602;48.000;9.654;2022-11-20T08:00:07;7.20;99.90
20885;DHT22;10602;48.000;9.654;2022-11-20T08:02:42;6.90;99.90
20885;DHT22;10602;48.000;9.654;2022-11-20T08:05:09;7.40;99.90
20885;DHT22;10602;48.000;9.654;2022-11-20T08:07:38;8.30;99.90
20885;DHT22;10602;48.000;9.654;2022-11-20T08:10:07;8.60;99.90
20885;DHT22;10602;48.000;9.654;2022-11-20T08:12:36;7.90;99.90
20885;DHT22;10602;48.000;9.654;2022-11-20T08:15:21;6.80;99.90
20885;DHT22;10602;48.000;9.654;2022-11-20T08:17:48;6.10;99.90
20885;DHT22;10602;48.000;9.654;2022-11-20T08:20:16;5.50;99.90
20885;DHT22;10602;48.000;9.654;2022-11-20T08:22:43;5.30;99.90
20885;DHT22;10602;48.000;9.654;2022-11-20T08:25:11;5.10;99.90
20885;DHT22;10602;48.000;9.654;2022-11-20T08:27:38;5.10;99.90
20885;DHT22;10602;48.000;9.654;2022-11-20T08:30:06;5.10;99.90
20885;DHT22;10602;48.000;9.654;2022-11-20T08:32:34;5.20;99.90
20885;DHT22;10602;48.000;9.654;2022-11-20T08:35:03;5.40;99.90
20885;DHT22;10602;48.000;9.654;2022-11-20T08:37:31;5.10;99.90
20885;DHT22;10602;48.000;9.654;2022-11-20T08:39:58;5.00;99.90
20885;DHT22;10602;48.000;9.654;2022-11-20T08:42:26;5.20;99.90
20885;DHT22;10602;48.000;9.654;2022-11-20T08:44:53;5.30;99.90
20885;DHT22;10602;48.000;9.654;2022-11-20T08:47:21;5.10;99.90
20885;DHT22;10602;48.000;9.654;2022-11-20T08:49:48;5.20;99.90
20885;DHT22;10602;48.000;9.654;2022-11-20T08:52:16;5.40;99.90
20885;DHT22;10602;48.000;9.654;2022-11-20T08:54:44;6.50;99.90
20885;DHT22;10602;48.000;9.654;2022-11-20T08:57:11;7.80;99.90
20885;DHT22;10602;48.000;9.654;2022-11-20T08:59:38;8.50;99.90
20885;DHT22;10602;48.000;9.654;2022-11-20T09:02:07;8.40;99.90
20885;DHT22;10602;48.000;9.654;2022-11-20T09:04:34;8.80;99.90
20885;DHT22;10602;48.000;9.654;2022-11-20T09:07:02;9.60;99.90
20885;DHT22;10602;48.000;9.654;2022-11-20T09:09:29;9.50;99.90
20885;DHT22;10602;48.000;9.654;2022-11-20T09:11:57;9.50;99.90
20885;DHT22;10602;48.000;9.654;2022-11-20T09:14:24;9.90;99.90
20885;DHT22;10602;48.000;9.654;2022-11-20T09:16:58;9.90;99.90
20885;DHT22;10602;48.000;9.654;2022-11-20T09:19:24;10.30;99.90
20885;DHT22;10602;48.000;9.654;2022-11-20T09:21:52;10.30;99.90
20885;DHT22;10602;48.000;9.654;2022-11-20T09:24:20;9.70;99.90
20885;DHT22;10602;48.000;9.654;2022-11-20T09:26:47;9.20;99.90
20885;DHT22;10602;48.000;9.654;2022-11-20T09:29:15;9.60;99.90
20885;DHT22;10602;48.000;9.654;2022-11-20T09:31:42;9.90;99.90
20885;DHT22;10602;48.000;9.654;2022-11-20T09:34:10;10.20;99.90
20885;DHT22;10602;48.000;9.654;2022-11-20T09:36:37;10.20;99.90
20885;DHT22;10602;48.000;9.654;2022-11-20T09:39:05;9.80;99.90
20885;DHT22;10602;48.000;9.654;2022-11-20T09:41:49;10.50;99.90
20885;DHT22;10602;48.000;9.654;2022-11-20T09:52:12;11.50;96.40
20885;DHT22;10602;48.000;9.654;2022-11-20T09:54:35;11.80;96.00
20885;DHT22;10602;48.000;9.654;2022-11-20T09:57:08;10.70;97.60
20885;DHT22;10602;48.000;9.654;2022-11-20T09:59:51;9.90;99.90
20885;DHT22;10602;48.000;9.654;2022-11-20T10:07:30;7.80;99.90
20885;DHT22;10602;48.000;9.654;2022-11-20T10:09:57;7.60;99.90
20885;DHT22;10602;48.000;9.654;2022-11-20T10:12:54;7.20;99.90
20885;DHT22;10602;48.000;9.654;2022-11-20T10:21:09;6.30;99.90
20885;DHT22;10602;48.000;9.654;2022-11-20T10:23:55;6.20;99.90
20885;DHT22;10602;48.000;9.654;2022-11-20T10:26:26;6.20;99.90
20885;DHT22;10602;48.000;9.654;2022-11-20T10:31:54;6.10;99.90
20885;DHT22;10602;48.000;9.654;2022-11-20T10:37:04;6.10;99.90
20885;DHT22;10602;48.000;9.654;2022-11-20T10:39:39;6.00;99.90
20885;DHT22;10602;48.000;9.654;2022-11-20T10:42:10;6.00;99.90
20885;DHT22;10602;48.000;9.654;2022-11-20T10:44:39;6.00;99.90
20885;DHT22;10602;48.000;9.654;2022-11-20T10:47:29;6.00;99.90
20885;DHT22;10602;48.000;9.654;2022-11-20T10:50:01;6.00;99.90
20885;DHT22;10602;48.000;9.654;2022-11-20T10:53:11;6.00;99.90
20885;DHT22;10602;48.000;9.654;2022-11-20T11:00:51;6.00;99.90
20885;DHT22;10602;48.000;9.654;2022-11-20T11:03:27;5.90;99.90
20885;DHT22;10602;48.000;9.654;2022-11-20T11:08:34;5.80;99.90
20885;DHT22;10602;48.000;9.654;2022-11-20T11:13:44;5.80;99.90
20885;DHT22;10602;48.000;9.654;2022-11-20T11:16:24;5.80;99.90
20885;DHT22;10602;48.000;9.654;2022-11-20T11:19:11;5.80;99.90
20885;DHT22;10602;48.000;9.654;2022-11-20T11:21:36;5.90;99.90
20885;DHT22;10602;48.000;9.654;2022-11-20T11:24:05;5.90;99.90
20885;DHT22;10602;48.000;9.654;2022-11-20T11:26:32;5.90;99.90
20885;DHT22;10602;48.000;9.654;2022-11-20T11:29:03;6.00;99.90
20885;DHT22;10602;48.000;9.654;2022-11-20T11:31:33;5.90;99.90
20885;DHT22;10602;48.000;9.654;2022-11-20T11:34:12;6.00;99.90
20885;DHT22;10602;48.000;9.654;2022-11-20T11:36:41;6.00;99.90
20885;DHT22;10602;48.000;9.654;2022-11-20T11:39:14;6.10;99.90
20885;DHT22;10602;48.000;9.654;2022-11-20T11:41:41;6.10;99.90
20885;DHT22;10602;48.000;9.654;2022-11-20T11:44:17;6.10;99.90
20885;DHT22;10602;48.000;9.654;2022-11-20T11:47:26;6.10;99.90
20885;DHT22;10602;48.000;9.654;2022-11-20T11:49:36;6.10;99.90
20885;DHT22;10602;48.000;9.654;2022-11-20T11:52:18;6.10;99.90
20885;DHT22;10602;48.000;9.654;2022-11-20T12:00:23;6.10;99.90
20885;DHT22;10602;48.000;9.654;2022-11-20T12:02:53;6.00;99.90
20885;DHT22;10602;48.000;9.654;2022-11-20T12:05:30;6.00;99.90
20885;DHT22;10602;48.000;9.654;2022-11-20T12:10:48;6.20;99.90
20885;DHT22;10602;48.000;9.654;2022-11-20T12:14:00;6.20;99.90
20885;DHT22;10602;48.000;9.654;2022-11-20T12:16:03;6.30;99.90
20885;DHT22;10602;48.000;9.654;2022-11-20T12:18:31;6.20;99.90
20885;DHT22;10602;48.000;9.654;2022-11-20T12:26:18;6.30;99.90
20885;DHT22;10602;48.000;9.654;2022-11-20T12:29:13;6.40;99.90
20885;DHT22;10602;48.000;9.654;2022-11-20T12:34:35;6.50;99.90
20885;DHT22;10602;48.000;9.654;2022-11-20T12:39:39;6.40;99.90
20885;DHT22;10602;48.000;9.654;2022-11-20T12:42:22;6.30;99.90
20885;DHT22;10602;48.000;9.654;2022-11-20T12:45:31;6.40;99.90
20885;DHT22;10602;48.000;9.654;2022-11-20T12:48:20;6.50;99.90
20885;DHT22;10602;48.000;9.654;2022-11-20T12:56:53;6.80;99.90
20885;DHT22;10602;48.000;9.654;2022-11-20T13:02:30;7.00;99.90
20885;DHT22;10602;48.000;9.654;2022-11-20T13:07:44;6.70;99.90
20885;DHT22;10602;48.000;9.654;2022-11-20T13:10:14;6.70;99.90
20885;DHT22;10602;48.000;9.654;2022-11-20T13:12:44;6.80;99.90
20885;DHT22;10602;48.000;9.654;2022-11-20T13:15:30;6.90;99.90
20885;DHT22;10602;48.000;9.654;2022-11-20T13:20:26;6.80;99.90
20885;DHT22;10602;48.000;9.654;2022-11-20T13:22:55;6.90;99.90
20885;DHT22;10602;48.000;9.654;2022-11-20T13:25:29;7.40;99.90
20885;DHT22;10602;48.000;9.654;2022-11-20T13:27:55;7.90;99.90
20885;DHT22;10602;48.000;9.654;2022-11-20T13:30:28;7.80;99.90
20885;DHT22;10602;48.000;9.654;2022-11-20T13:33:03;7.50;99.90
20885;DHT22;10602;48.000;9.654;2022-11-20T13:35:34;7.20;99.90
20885;DHT22;10602;48.000;9.654;2022-11-20T13:40:30;8.30;99.90
20885;DHT22;10602;48.000;9.654;2022-11-20T13:46:04;8.60;99.90
20885;DHT22;10602;48.000;9.654;2022-11-20T13:53:55;6.80;99.90
20885;DHT22;10602;48.000;9.654;2022-11-20T14:02:15;7.00;99.90
20885;DHT22;10602;48.000;9.654;2022-11-20T14:04:56;7.00;99.90
20885;DHT22;10602;48.000;9.654;2022-11-20T14:07:21;6.90;99.90
20885;DHT22;10602;48.000;9.654;2022-11-20T14:09:54;7.10;99.90
20885;DHT22;10602;48.000;9.654;2022-11-20T14:12:31;7.20;99.90
20885;DHT22;10602;48.000;9.654;2022-11-20T14:14:59;7.70;99.90
20885;DHT22;10602;48.000;9.654;2022-11-20T14:17:34;7.80;99.90
20885;DHT22;10602;48.000;9.654;2022-11-20T14:20:11;7.50;99.90
20885;DHT22;10602;48.000;9.654;2022-11-20T14:22:36;7.00;99.90
20885;DHT22;10602;48.000;9.654;2022-11-20T14:27:46;7.10;99.90
20885;DHT22;10602;48.000;9.654;2022-11-20T14:30:16;6.80;99.90
20885;DHT22;10602;48.000;9.654;2022-11-20T14:32:45;6.60;99.90
20885;DHT22;10602;48.000;9.654;2022-11-20T14:35:28;6.60;99.90
20885;DHT22;10602;48.000;9.654;2022-11-20T14:37:56;6.90;99.90
20885;DHT22;10602;48.000;9.654;2022-11-20T14:40:30;7.50;99.90
20885;DHT22;10602;48.000;9.654;2022-11-20T14:42:55;8.00;99.90
20885;DHT22;10602;48.000;9.654;2022-11-20T14:45:24;8.20;99.90
20885;DHT22;10602;48.000;9.654;2022-11-20T14:47:54;8.30;99.90
20885;DHT22;10602;48.000;9.654;2022-11-20T14:50:28;8.20;99.90
20885;DHT22;10602;48.000;9.654;2022-11-20T14:53:00;8.30;99.90
20885;DHT22;10602;48.000;9.654;2022-11-20T14:55:34;8.30;99.90
20885;DHT22;10602;48.000;9.654;2022-11-20T14:58:04;7.90;99.90
20885;DHT22;10602;48.000;9.654;2022-11-20T15:00:34;7.30;99.90
20885;DHT22;10602;48.000;9.654;2022-11-20T15:03:13;7.00;99.90
20885;DHT22;10602;48.000;9.654;2022-11-20T15:05:47;6.70;99.90
20885;DHT22;10602;48.000;9.654;2022-11-20T15:08:16;6.90;99.90
20885;DHT22;10602;48.000;9.654;2022-11-20T15:10:48;6.90;99.90
20885;DHT22;10602;48.000;9.654;2022-11-20T15:15:50;6.30;99.90
20885;DHT22;10602;48.000;9.654;2022-11-20T15:20:52;5.90;99.90
20885;DHT22;10602;48.000;9.654;2022-11-20T15:23:20;5.80;99.90
20885;DHT22;10602;48.000;9.654;2022-11-20T15:25:48;5.70;99.90
20885;DHT22;10602;48.000;9.654;2022-11-20T15:30:52;5.60;99.90
20885;DHT22;10602;48.000;9.654;2022-11-20T15:33:20;5.50;99.90
20885;DHT22;10602;48.000;9.654;2022-11-20T15:35:47;5.50;99.90
20885;DHT22;10602;48.000;9.654;2022-11-20T15:38:15;5.40;99.90
20885;DHT22;10602;48.000;9.654;2022-11-20T15:40:42;5.40;99.90
20885;DHT22;10602;48.000;9.654;2022-11-20T15:43:10;5.30;99.90
20885;DHT22;10602;48.000;9.654;2022-11-20T15:45:42;5.30;99.90
20885;DHT22;10602;48.000;9.654;2022-11-20T15:48:21;5.20;99.90
20885;DHT22;10602;48.000;9.654;2022-11-20T15:53:22;5.10;99.90
20885;DHT22;10602;48.000;9.654;2022-11-20T15:55:49;5.00;99.90
20885;DHT22;10602;48.000;9.654;2022-11-20T15:58:17;5.00;99.90
20885;DHT22;10602;48.000;9.654;2022-11-20T16:00:45;4.90;99.90
20885;DHT22;10602;48.000;9.654;2022-11-20T16:03:19;4.90;99.90
20885;DHT22;10602;48.000;9.654;2022-11-20T16:05:46;4.90;99.90
20885;DHT22;10602;48.000;9.654;2022-11-20T16:08:14;4.80;99.90
20885;DHT22;10602;48.000;9.654;2022-11-20T16:10:42;4.80;99.90
20885;DHT22;10602;48.000;9.654;2022-11-20T16:13:14;4.70;99.90
20885;DHT22;10602;48.000;9.654;2022-11-20T16:16:03;4.70;99.90
20885;DHT22;10602;48.000;9.654;2022-11-20T16:18:32;4.60;99.90
20885;DHT22;10602;48.000;9.654;2022-11-20T16:20:59;4.60;99.90
20885;DHT22;10602;48.000;9.654;2022-11-20T16:23:27;4.60;99.90
20885;DHT22;10602;48.000;9.654;2022-11-20T16:25:54;4.50;99.90
20885;DHT22;10602;48.000;9.654;2022-11-20T16:28:22;4.50;99.90
20885;DHT22;10602;48.000;9.654;2022-11-20T16:30:49;4.50;99.90
20885;DHT22;10602;48.000;9.654;2022-11-20T16:33:17;4.50;99.90
20885;DHT22;10602;48.000;9.654;2022-11-20T16:35:45;4.40;99.90
20885;DHT22;10602;48.000;9.654;2022-11-20T16:38:12;4.40;99.90
20885;DHT22;10602;48.000;9.654;2022-11-20T16:40:40;4.40;99.90
20885;DHT22;10602;48.000;9.654;2022-11-20T16:43:10;4.40;99.90
20885;DHT22;10602;48.000;9.654;2022-11-20T16:45:41;4.40;99.90
20885;DHT22;10602;48.000;9.654;2022-11-20T16:48:14;4.30;99.90
20885;DHT22;10602;48.000;9.654;2022-11-20T16:50:49;4.30;99.90
20885;DHT22;10602;48.000;9.654;2022-11-20T16:53:20;4.20;99.90
20885;DHT22;10602;48.000;9.654;2022-11-20T16:55:48;4.10;99.90
20885;DHT22;10602;48.000;9.654;2022-11-20T16:58:16;4.10;99.90
20885;DHT22;10602;48.000;9.654;2022-11-20T17:00:43;4.00;99.90
20885;DHT22;10602;48.000;9.654;2022-11-20T17:03:11;4.00;99.90
20885;DHT22;10602;48.000;9.654;2022-11-20T17:05:40;4.00;99.90
20885;DHT22;10602;48.000;9.654;2022-11-20T17:08:07;4.00;99.90
20885;DHT22;10602;48.000;9.654;2022-11-20T17:10:35;3.90;99.90
20885;DHT22;10602;48.000;9.654;2022-11-20T17:13:02;3.90;99.90
20885;DHT22;10602;48.000;9.654;2022-11-20T17:15:30;3.90;99.90
20885;DHT22;10602;48.000;9.654;2022-11-20T17:17:58;3.90;99.90
20885;DHT22;10602;48.000;9.654;2022-11-20T17:20:25;3.90;99.90
20885;DHT22;10602;48.000;9.654;2022-11-20T17:22:53;3.80;99.90
20885;DHT22;10602;48.000;9.654;2022-11-20T17:25:20;3.80;99.90
20885;DHT22;10602;48.000;9.654;2022-11-20T17:27:48;3.70;99.90
20885;DHT22;10602;48.000;9.654;2022-11-20T17:30:15;3.70;99.90
20885;DHT22;10602;48.000;9.654;2022-11-20T17:32:43;3.60;99.90
20885;DHT22;10602;48.000;9.654;2022-11-20T17:35:12;3.60;99.90
20885;DHT22;10602;48.000;9.654;2022-11-20T17:37:39;3.60;99.90
20885;DHT22;10602;48.000;9.654;2022-11-20T17:40:07;3.60;99.90
20885;DHT22;10602;48.000;9.654;2022-11-20T17:42:35;3.60;99.90
20885;DHT22;10602;48.000;9.654;2022-11-20T17:45:03;3.60;99.90
20885;DHT22;10602;48.000;9.654;2022-11-20T17:47:30;3.50;99.90